Time;durP1;ratioP1;P1;durP2;ratioP2;P2;SDS_P1;SDS_P2;PMS_P1;PMS_P2;Temp;Humidity;BMP_temperature;BMP_pressure;BME280_temperature;BME280_humidity;BME280_pressure;Samples;Min_cycle;Max_cycle;Signal;HPM_P1;HPM_P2
2022/12/23 00:00:11;;;;;;;;;;;;;;;13.94;72.23;99948.19;1249032;23;653;-73
2022/12/23 00:01:01;;;;;;;;;;;;;;;13.93;72.15;99949.16;1249019;23;657;-73
2022/12/23 00:01:52;;;;;;;;;;;;;;;13.92;72.62;99946.63;1248940;23;632;-72
2022/12/23 00:02:42;;;;;;;;;;;;;;;13.92;72.30;99944.78;1248995;23;638;-72
2022/12/23 00:03:33;;;;;;;;;;;;;;;13.91;72.99;99956.50;1249005;23;1885;-73
2022/12/23 00:04:23;;;;;;;;;;;;;;;13.93;72.12;99953.66;1248967;23;646;-72
2022/12/23 00:05:14;;;;;;;;;;;;;;;13.92;72.27;99958.19;1249404;23;700;-72
2022/12/23 00:06:04;;;;;;;;;;;;;;;13.92;72.25;99952.81;1249142;23;602;-72
2022/12/23 00:06:54;;;;;;;;;;;;;;;13.93;72.51;99959.03;1248953;23;807;-72
2022/12/23 00:07:45;;;;;;;;;;;;;;;13.92;72.29;99958.19;1249155;23;645;-72
2022/12/23 00:08:35;;;;;;;;;;;;;;;13.93;72.78;99957.19;1249022;23;638;-74
2022/12/23 00:09:26;;;;;;;;;;;;;;;13.93;72.26;99959.03;1249435;23;614;-74
2022/12/23 00:10:16;;;;;;;;;;;;;;;13.92;72.34;99958.19;1249362;23;665;-73
2022/12/23 00:11:06;;;;;;;;;;;;;;;13.95;72.42;99963.25;1249380;23;669;-73
2022/12/23 00:15:29;;;;;;;;;;;;;;;13.94;72.35;99972.28;1237013;24;704;-74
2022/12/23 00:16:20;;;;;;;;;;;;;;;13.95;72.24;99970.44;1237070;24;650;-73
2022/12/23 00:17:10;;;;;;;;;;;;;;;13.94;72.36;99963.41;1237027;24;614;-74
2022/12/23 00:18:01;;;;;;;;;;;;;;;13.92;72.50;99974.25;1237103;24;615;-74
2022/12/23 00:18:51;;;;;;;;;;;;;;;13.91;72.73;99975.25;1238087;23;610;-74
2022/12/23 00:19:42;;;;;;;;;;;;;;;13.90;72.56;99974.41;1237880;23;673;-74
2022/12/23 00:20:33;;;;;;;;;;;;;;;13.92;72.94;99976.09;1237941;23;673;-74
2022/12/23 00:21:23;;;;;;;;;;;;;;;13.92;72.86;99982.28;1237145;24;624;-73
2022/12/23 00:22:13;;;;;;;;;;;;;;;13.93;72.59;99983.13;1237829;23;714;-73
2022/12/23 00:23:04;;;;;;;;;;;;;;;13.92;72.78;99982.28;1237917;23;658;-73
2022/12/23 00:23:54;;;;;;;;;;;;;;;13.91;72.58;99983.28;1237768;23;1889;-73
2022/12/23 00:24:45;;;;;;;;;;;;;;;13.90;72.79;99976.22;1237853;23;636;-72
2022/12/23 00:25:43;;;;;;;;;;;;;;;13.92;72.72;99976.94;1233782;23;650;-72
2022/12/23 00:26:33;;;;;;;;;;;;;;;13.93;72.51;99981.31;1230527;24;642;-72
2022/12/23 00:27:24;;;;;;;;;;;;;;;13.92;72.25;99979.63;1237007;24;1095;-72
2022/12/23 00:28:14;;;;;;;;;;;;;;;13.93;72.61;99981.31;1238090;23;670;-72
2022/12/23 00:29:05;;;;;;;;;;;;;;;13.93;72.43;99981.31;1233649;23;787;-72
2022/12/23 00:29:55;;;;;;;;;;;;;;;13.93;72.64;99981.31;1231381;24;624;-71
2022/12/23 00:30:45;;;;;;;;;;;;;;;13.94;72.74;99993.72;1236066;24;667;-72
2022/12/23 00:31:36;;;;;;;;;;;;;;;13.93;72.79;99981.31;1237890;23;657;-72
2022/12/23 00:32:26;;;;;;;;;;;;;;;13.95;72.14;99978.50;1237965;23;650;-71
2022/12/23 00:33:17;;;;;;;;;;;;;;;13.94;72.11;99983.00;1237691;23;602;-71
2022/12/23 00:34:07;;;;;;;;;;;;;;;13.93;72.15;99986.66;1237980;23;1072;-72
2022/12/23 00:34:57;;;;;;;;;;;;;;;13.93;72.66;99980.47;1237864;23;692;-72
2022/12/23 00:35:48;;;;;;;;;;;;;;;13.95;72.32;99989.19;1237928;23;704;-72
2022/12/23 00:36:39;;;;;;;;;;;;;;;13.94;72.70;99993.72;1237925;23;639;-72
2022/12/23 00:37:30;;;;;;;;;;;;;;;13.93;72.81;99986.66;1237078;24;653;-72
2022/12/23 00:42:52;;;;;;;;;;;;;;;13.94;72.61;99983.00;1237909;23;625;-72
2022/12/23 00:42:59;;;;;;;;;;;;;;;13.92;72.40;99990.31;1238008;23;615;-72
2022/12/23 00:43:50;;;;;;;;;;;;;;;13.92;72.43;99993.00;1237581;23;1943;-72
2022/12/23 00:44:40;;;;;;;;;;;;;;;13.93;72.63;99991.16;1236905;24;603;-72
2022/12/23 00:45:30;;;;;;;;;;;;;;;13.93;72.58;99996.53;1237854;23;868;-72
2022/12/23 00:46:21;;;;;;;;;;;;;;;13.93;72.59;99981.31;1238044;23;673;-72
2022/12/23 00:49:40;;;;;;;;;;;;;;;13.93;72.27;99985.81;1237062;24;831;-72
2022/12/23 00:49:43;;;;;;;;;;;;;;;13.93;72.33;99989.34;1237788;23;588;-72
2022/12/23 00:50:34;;;;;;;;;;;;;;;13.93;72.67;99985.81;1237072;24;639;-72
2022/12/23 00:51:24;;;;;;;;;;;;;;;13.92;72.80;99984.97;1233911;23;614;-72
2022/12/23 00:52:15;;;;;;;;;;;;;;;13.93;72.40;99992.00;1231329;24;681;-72
2022/12/23 00:53:05;;;;;;;;;;;;;;;13.93;72.49;99991.16;1236878;24;1057;-72
2022/12/23 00:53:55;;;;;;;;;;;;;;;13.92;72.97;99993.00;1244600;23;586;-72
2022/12/23 00:54:46;;;;;;;;;;;;;;;13.92;72.83;99989.47;1244639;23;661;-72
2022/12/23 00:55:36;;;;;;;;;;;;;;;13.91;72.89;100002.03;1249221;23;587;-72
2022/12/23 00:56:27;;;;;;;;;;;;;;;13.92;72.72;99995.69;1249335;23;759;-72
2022/12/23 00:57:17;;;;;;;;;;;;;;;13.90;73.14;99995.81;1249351;23;654;-72
2022/12/23 00:58:07;;;;;;;;;;;;;;;13.89;73.05;100009.34;1249236;23;658;-72
2022/12/23 00:58:58;;;;;;;;;;;;;;;13.89;72.32;100012.88;1249296;23;743;-72
2022/12/23 00:59:48;;;;;;;;;;;;;;;13.92;72.75;100001.03;1249246;23;666;-72
2022/12/23 01:06:25;;;;;;;;;;;;;;;13.91;72.82;100010.06;1249246;23;823;-73
2022/12/23 01:07:15;;;;;;;;;;;;;;;13.91;72.69;100007.38;1243925;23;662;-73
2022/12/23 01:08:05;;;;;;;;;;;;;;;13.91;72.52;100002.03;1243771;23;845;-73
2022/12/23 01:08:56;;;;;;;;;;;;;;;13.90;72.81;100003.84;1250010;23;614;-71
2022/12/23 01:09:46;;;;;;;;;;;;;;;13.90;73.23;100008.38;1249161;23;622;-71
2022/12/23 01:10:37;;;;;;;;;;;;;;;13.92;72.75;100011.75;1249348;23;697;-71
2022/12/23 01:11:27;;;;;;;;;;;;;;;13.89;72.93;100012.88;1249206;23;624;-71
2022/12/23 01:12:18;;;;;;;;;;;;;;;13.90;72.56;100011.88;1249304;23;641;-71
2022/12/23 01:13:08;;;;;;;;;;;;;;;13.90;72.31;100006.53;1249184;23;661;-71
2022/12/23 01:13:58;;;;;;;;;;;;;;;13.90;72.78;100017.25;1249370;23;662;-72
2022/12/23 01:14:49;;;;;;;;;;;;;;;13.89;73.07;100018.22;1249269;23;665;-72
2022/12/23 01:15:39;;;;;;;;;;;;;;;13.91;73.06;100015.41;1249230;23;621;-72
2022/12/23 01:16:30;;;;;;;;;;;;;;;13.90;72.59;100016.41;1249269;23;839;-72
2022/12/23 01:17:20;;;;;;;;;;;;;;;13.90;72.41;100019.09;1249201;23;638;-71
2022/12/23 01:18:11;;;;;;;;;;;;;;;13.91;72.83;100018.09;1249303;23;681;-72
2022/12/23 01:19:01;;;;;;;;;;;;;;;13.92;72.45;100016.25;1248744;23;795;-72
2022/12/23 01:19:51;;;;;;;;;;;;;;;13.90;73.00;100017.25;1249182;23;665;-71
2022/12/23 01:20:42;;;;;;;;;;;;;;;13.90;73.00;100011.88;1243791;23;690;-72
2022/12/23 01:21:32;;;;;;;;;;;;;;;13.92;72.49;100021.63;1243823;23;665;-71
2022/12/23 01:22:23;;;;;;;;;;;;;;;13.90;72.54;100019.09;1249899;23;654;-71
2022/12/23 01:23:13;;;;;;;;;;;;;;;13.90;72.55;100016.41;1249203;23;673;-71
2022/12/23 01:24:04;;;;;;;;;;;;;;;13.89;72.58;100020.91;1249140;23;1873;-72
2022/12/23 01:24:54;;;;;;;;;;;;;;;13.90;73.06;100021.75;1243911;23;739;-71
2022/12/23 01:25:47;;;;;;;;;;;;;;;13.91;72.89;100023.44;1243915;23;710;-71
2022/12/23 01:26:37;;;;;;;;;;;;;;;13.90;72.83;100035.16;1250288;23;743;-72
2022/12/23 01:27:28;;;;;;;;;;;;;;;13.89;72.92;100034.31;1249239;23;698;-71
2022/12/23 01:28:18;;;;;;;;;;;;;;;13.91;72.60;100034.16;1249328;23;685;-71
2022/12/23 01:29:08;;;;;;;;;;;;;;;13.89;72.57;100046.84;1249268;23;673;-71
2022/12/23 01:29:59;;;;;;;;;;;;;;;13.89;72.99;100041.50;1249301;23;606;-71
2022/12/23 01:30:49;;;;;;;;;;;;;;;13.90;73.05;100033.31;1249327;23;603;-71
2022/12/23 01:31:40;;;;;;;;;;;;;;;13.91;73.05;100039.53;1249299;23;653;-71
2022/12/23 01:32:30;;;;;;;;;;;;;;;13.91;73.02;100042.19;1249290;23;606;-71
2022/12/23 01:33:21;;;;;;;;;;;;;;;13.92;73.14;100043.03;1248729;23;644;-71
2022/12/23 01:34:11;;;;;;;;;;;;;;;13.92;72.54;100035.84;1243969;23;879;-71
2022/12/23 01:35:01;;;;;;;;;;;;;;;13.92;72.98;100037.69;1243708;23;626;-71
2022/12/23 01:35:52;;;;;;;;;;;;;;;13.92;72.66;100043.91;1249894;23;639;-71
2022/12/23 01:36:42;;;;;;;;;;;;;;;13.93;72.57;100039.38;1249138;23;661;-72
2022/12/23 01:37:33;;;;;;;;;;;;;;;13.93;72.96;100045.59;1249223;23;696;-71
2022/12/23 01:38:23;;;;;;;;;;;;;;;13.93;72.59;100042.06;1249227;23;638;-71
2022/12/23 01:39:14;;;;;;;;;;;;;;;13.90;72.45;100052.06;1249225;23;676;-72
2022/12/23 01:40:04;;;;;;;;;;;;;;;13.93;72.34;100050.09;1249175;23;736;-73
2022/12/23 01:40:54;;;;;;;;;;;;;;;13.92;72.98;100053.75;1249210;23;666;-72
2022/12/23 01:42:54;;;;;;;;;;;;;;;13.90;72.54;100057.44;1249173;23;619;-72
2022/12/23 01:43:44;;;;;;;;;;;;;;;13.91;72.84;100055.59;1248966;23;1950;-72
2022/12/23 01:44:35;;;;;;;;;;;;;;;13.91;72.65;100047.56;1249310;23;661;-72
2022/12/23 01:45:25;;;;;;;;;;;;;;;13.92;72.94;100049.25;1249328;23;626;-73
2022/12/23 01:46:16;;;;;;;;;;;;;;;13.91;72.70;100052.91;1249186;23;629;-73
2022/12/23 01:47:06;;;;;;;;;;;;;;;13.93;72.91;100055.44;1249261;23;658;-72
2022/12/23 01:47:57;;;;;;;;;;;;;;;13.93;73.09;100050.94;1248674;23;650;-72
2022/12/23 01:48:47;;;;;;;;;;;;;;;13.93;72.71;100050.94;1249241;23;610;-72
2022/12/23 01:49:38;;;;;;;;;;;;;;;13.94;72.72;100052.63;1249447;23;661;-72
2022/12/23 01:50:28;;;;;;;;;;;;;;;13.93;72.91;100058.97;1249284;23;607;-72
2022/12/23 01:51:19;;;;;;;;;;;;;;;13.94;72.44;100058.00;1249211;23;669;-72
2022/12/23 01:52:09;;;;;;;;;;;;;;;13.93;72.59;100058.13;1249270;23;662;-72
2022/12/23 01:52:59;;;;;;;;;;;;;;;13.93;72.93;100067.00;1249199;23;650;-72
2022/12/23 01:53:50;;;;;;;;;;;;;;;13.92;72.88;100059.97;1249227;23;626;-72
2022/12/23 01:54:40;;;;;;;;;;;;;;;13.93;73.03;100071.53;1249197;23;634;-72
2022/12/23 01:55:31;;;;;;;;;;;;;;;13.93;73.27;100060.81;1249291;23;543;-72
2022/12/23 01:56:22;;;;;;;;;;;;;;;13.91;73.02;100068.97;1249243;23;637;-72
2022/12/23 01:57:13;;;;;;;;;;;;;;;13.92;72.61;100069.84;1249251;23;673;-72
2022/12/23 01:58:03;;;;;;;;;;;;;;;13.92;72.47;100069.84;1249265;23;649;-72
2022/12/23 01:58:54;;;;;;;;;;;;;;;13.90;73.12;100075.31;1249288;23;622;-73
2022/12/23 02:04:21;;;;;;;;;;;;;;;13.89;73.13;100081.66;1249288;23;641;-72
2022/12/23 02:05:11;;;;;;;;;;;;;;;13.88;72.86;100077.28;1249213;23;638;-72
2022/12/23 02:09:15;;;;;;;;;;;;;;;13.90;72.69;100086.03;1249134;23;598;-72
2022/12/23 02:09:30;;;;;;;;;;;;;;;13.90;72.59;100096.75;1249230;23;602;-72
2022/12/23 02:10:21;;;;;;;;;;;;;;;13.90;72.88;100091.41;1249370;23;883;-72
2022/12/23 02:11:11;;;;;;;;;;;;;;;13.89;72.80;100097.75;1249624;23;626;-72
2022/12/23 02:12:02;;;;;;;;;;;;;;;13.88;73.07;100096.03;1249533;23;638;-71
2022/12/23 02:12:52;;;;;;;;;;;;;;;13.89;73.09;100097.75;1249665;23;665;-71
2022/12/23 02:16:15;;;;;;;;;;;;;;;13.89;73.24;100097.75;1249592;23;622;-72
2022/12/23 02:16:15;;;;;;;;;;;;;;;13.89;72.68;100097.75;1236316;24;965;-72
2022/12/23 02:17:05;;;;;;;;;;;;;;;13.92;72.61;100096.63;1238490;23;618;-72
2022/12/23 02:17:56;;;;;;;;;;;;;;;13.90;73.00;100099.44;1238172;23;884;-72
2022/12/23 02:18:46;;;;;;;;;;;;;;;13.90;72.64;100099.44;1238249;23;638;-72
2022/12/23 02:19:37;;;;;;;;;;;;;;;13.90;72.75;100096.75;1237943;23;644;-72
2022/12/23 02:20:27;;;;;;;;;;;;;;;13.90;72.71;100099.44;1238343;23;689;-72
2022/12/23 02:21:17;;;;;;;;;;;;;;;13.89;72.78;100095.06;1238916;23;671;-72
2022/12/23 02:22:08;;;;;;;;;;;;;;;13.89;73.12;100097.75;1238075;23;639;-72
2022/12/23 02:22:58;;;;;;;;;;;;;;;13.89;73.06;100100.41;1238142;23;657;-72
2022/12/23 02:23:49;;;;;;;;;;;;;;;13.90;72.96;100096.75;1238022;23;1941;-72
2022/12/23 02:24:39;;;;;;;;;;;;;;;13.87;73.21;100100.56;1238217;23;666;-72
2022/12/23 02:25:30;;;;;;;;;;;;;;;13.88;73.01;100109.44;1238134;23;640;-71
2022/12/23 02:26:20;;;;;;;;;;;;;;;13.88;72.50;100106.75;1238077;23;633;-72
2022/12/23 02:27:10;;;;;;;;;;;;;;;13.89;72.71;100108.44;1239040;23;643;-72
2022/12/23 02:28:01;;;;;;;;;;;;;;;13.89;72.53;100100.41;1238009;23;726;-72
2022/12/23 02:28:51;;;;;;;;;;;;;;;13.88;73.37;100106.75;1238227;23;613;-72
2022/12/23 02:29:42;;;;;;;;;;;;;;;13.88;73.18;100109.44;1238804;23;653;-71
2022/12/23 02:30:32;;;;;;;;;;;;;;;13.88;73.18;100112.13;1238203;23;716;-72
2022/12/23 02:31:22;;;;;;;;;;;;;;;13.87;72.66;100110.41;1237527;23;641;-72
2022/12/23 02:32:13;;;;;;;;;;;;;;;13.88;73.21;100106.75;1238075;23;665;-72
2022/12/23 02:33:03;;;;;;;;;;;;;;;13.88;73.11;100106.75;1237962;23;580;-72
2022/12/23 02:33:54;;;;;;;;;;;;;;;13.87;73.22;100119.31;1238020;23;1063;-71
2022/12/23 02:34:44;;;;;;;;;;;;;;;13.87;73.01;100105.06;1238274;23;650;-71
2022/12/23 02:35:35;;;;;;;;;;;;;;;13.88;72.93;100112.13;1239108;23;638;-71
2022/12/23 02:36:25;;;;;;;;;;;;;;;13.88;72.84;100112.97;1238058;23;618;-71
2022/12/23 02:37:15;;;;;;;;;;;;;;;13.88;72.74;100112.13;1237206;24;670;-72
2022/12/23 02:38:06;;;;;;;;;;;;;;;13.89;72.76;100111.13;1237225;24;705;-71
2022/12/23 02:38:56;;;;;;;;;;;;;;;13.87;73.25;100116.63;1238180;23;650;-71
2022/12/23 02:39:47;;;;;;;;;;;;;;;13.88;73.22;100112.13;1237269;24;654;-72
2022/12/23 02:40:37;;;;;;;;;;;;;;;13.88;73.25;100117.47;1238103;23;958;-71
2022/12/23 02:41:27;;;;;;;;;;;;;;;13.87;72.89;100118.44;1238094;23;625;-72
2022/12/23 02:42:18;;;;;;;;;;;;;;;13.88;73.44;100125.50;1238746;23;677;-72
2022/12/23 02:43:08;;;;;;;;;;;;;;;13.90;73.20;100131.56;1238035;23;559;-72
2022/12/23 02:43:59;;;;;;;;;;;;;;;13.90;72.84;100128.91;1232773;23;1949;-72
2022/12/23 02:44:49;;;;;;;;;;;;;;;13.91;73.07;100127.91;1233340;23;618;-71
2022/12/23 02:45:40;;;;;;;;;;;;;;;13.90;72.58;100129.75;1236840;24;670;-71
2022/12/23 02:46:30;;;;;;;;;;;;;;;13.92;73.32;100121.56;1238113;23;760;-72
2022/12/23 02:47:21;;;;;;;;;;;;;;;13.89;72.96;100128.03;1237950;23;671;-72
2022/12/23 02:48:11;;;;;;;;;;;;;;;13.89;73.12;100129.88;1237958;23;646;-72
2022/12/23 02:49:02;;;;;;;;;;;;;;;13.89;72.79;100136.09;1237959;23;638;-72
2022/12/23 02:49:52;;;;;;;;;;;;;;;13.88;73.43;100131.72;1237294;24;732;-71
2022/12/23 02:50:42;;;;;;;;;;;;;;;13.89;73.46;100135.22;1238299;23;669;-71
2022/12/23 02:51:33;;;;;;;;;;;;;;;13.88;73.08;100134.38;1238108;23;630;-71
2022/12/23 02:52:23;;;;;;;;;;;;;;;13.89;72.82;100141.44;1238015;23;642;-72
2022/12/23 02:53:14;;;;;;;;;;;;;;;13.88;73.14;100137.06;1238953;23;941;-72
2022/12/23 02:54:04;;;;;;;;;;;;;;;13.88;73.14;100144.25;1249424;23;641;-72
2022/12/23 02:54:54;;;;;;;;;;;;;;;13.90;72.66;100145.81;1249485;23;626;-71
2022/12/23 02:55:45;;;;;;;;;;;;;;;13.90;73.13;100136.94;1249494;23;633;-71
2022/12/23 02:56:35;;;;;;;;;;;;;;;13.90;72.70;100136.94;1249489;23;640;-71
2022/12/23 02:57:26;;;;;;;;;;;;;;;13.91;72.42;100143.97;1249555;23;683;-71
2022/12/23 02:58:16;;;;;;;;;;;;;;;13.90;73.05;100147.66;1249381;23;630;-71
2022/12/23 02:59:07;;;;;;;;;;;;;;;13.89;73.10;100148.63;1249472;23;630;-71
2022/12/23 02:59:57;;;;;;;;;;;;;;;13.90;72.66;100150.31;1249499;23;621;-71
2022/12/23 03:00:47;;;;;;;;;;;;;;;13.87;73.22;100150.59;1249507;23;658;-71
2022/12/23 03:01:38;;;;;;;;;;;;;;;13.90;73.13;100150.31;1249438;23;618;-71
2022/12/23 03:02:28;;;;;;;;;;;;;;;13.87;73.39;100147.91;1249491;23;642;-71
2022/12/23 03:03:20;;;;;;;;;;;;;;;13.89;72.83;100153.97;1249469;23;685;-71
2022/12/23 03:04:11;;;;;;;;;;;;;;;13.88;72.58;100153.13;1249370;23;1927;-71
2022/12/23 03:05:01;;;;;;;;;;;;;;;13.89;72.71;100151.31;1249361;23;617;-71
2022/12/23 03:05:52;;;;;;;;;;;;;;;13.88;72.98;100153.13;1249572;23;626;-71
2022/12/23 03:06:42;;;;;;;;;;;;;;;13.89;73.25;100151.31;1249497;23;645;-71
2022/12/23 03:07:32;;;;;;;;;;;;;;;13.87;72.97;100148.75;1249520;23;654;-72
2022/12/23 03:08:23;;;;;;;;;;;;;;;13.88;72.72;100154.97;1249450;23;745;-72
2022/12/23 03:09:13;;;;;;;;;;;;;;;13.88;72.95;100149.59;1249523;23;712;-72
2022/12/23 03:10:04;;;;;;;;;;;;;;;13.89;72.77;100151.31;1249584;23;725;-72
2022/12/23 03:10:54;;;;;;;;;;;;;;;13.87;72.70;100147.91;1249492;23;638;-72
2022/12/23 03:11:45;;;;;;;;;;;;;;;13.88;73.25;100149.59;1249497;23;633;-72
2022/12/23 03:12:35;;;;;;;;;;;;;;;13.88;72.87;100149.59;1249525;23;670;-72
2022/12/23 03:13:25;;;;;;;;;;;;;;;13.86;73.31;100147.06;1249483;23;662;-72
2022/12/23 03:14:16;;;;;;;;;;;;;;;13.85;72.75;100147.19;1249498;23;618;-72
2022/12/23 03:15:06;;;;;;;;;;;;;;;13.86;72.72;100149.75;1248946;23;1057;-72
2022/12/23 03:15:57;;;;;;;;;;;;;;;13.88;72.73;100149.59;1249418;23;637;-72
2022/12/23 03:16:47;;;;;;;;;;;;;;;13.87;72.72;100147.91;1249467;23;642;-72
2022/12/23 03:17:38;;;;;;;;;;;;;;;13.86;73.14;100146.22;1249417;23;681;-72
2022/12/23 03:18:28;;;;;;;;;;;;;;;13.85;72.80;100141.84;1249541;23;622;-72
2022/12/23 03:19:18;;;;;;;;;;;;;;;13.85;72.86;100139.16;1249556;23;628;-72
2022/12/23 03:20:09;;;;;;;;;;;;;;;13.85;73.07;100144.53;1249495;23;582;-72
2022/12/23 03:20:59;;;;;;;;;;;;;;;13.86;73.40;100141.72;1249437;23;827;-72
2022/12/23 03:21:50;;;;;;;;;;;;;;;13.85;73.13;100147.19;1249354;23;661;-72
2022/12/23 03:22:40;;;;;;;;;;;;;;;13.86;72.79;100152.41;1249250;23;642;-72
2022/12/23 03:23:30;;;;;;;;;;;;;;;13.86;72.87;100144.38;1249479;23;642;-72
2022/12/23 03:24:21;;;;;;;;;;;;;;;13.87;72.71;100147.91;1249372;23;673;-72
2022/12/23 03:25:12;;;;;;;;;;;;;;;13.88;73.27;100144.25;1249517;23;689;-72
2022/12/23 03:26:02;;;;;;;;;;;;;;;13.86;72.90;100141.72;1249526;23;662;-71
2022/12/23 03:26:53;;;;;;;;;;;;;;;13.88;73.09;100145.09;1249513;23;622;-71
2022/12/23 03:27:43;;;;;;;;;;;;;;;13.86;73.04;100141.72;1243997;23;736;-72
2022/12/23 03:28:33;;;;;;;;;;;;;;;13.87;73.16;100147.91;1244098;23;645;-72
2022/12/23 03:29:24;;;;;;;;;;;;;;;13.86;72.97;100146.22;1249454;23;745;-72
2022/12/23 03:30:14;;;;;;;;;;;;;;;13.87;72.80;100142.56;1249445;23;685;-72
2022/12/23 03:31:05;;;;;;;;;;;;;;;13.85;73.02;100144.53;1249349;23;669;-72
2022/12/23 03:31:55;;;;;;;;;;;;;;;13.84;73.11;100142.81;1249473;23;630;-72
2022/12/23 03:32:46;;;;;;;;;;;;;;;13.85;73.28;100139.16;1249337;23;641;-71
2022/12/23 03:33:36;;;;;;;;;;;;;;;13.86;72.71;100136.34;1249415;23;619;-72
2022/12/23 03:34:27;;;;;;;;;;;;;;;13.86;72.83;100146.22;1249278;23;633;-72
2022/12/23 03:35:17;;;;;;;;;;;;;;;13.84;73.68;100137.47;1249399;23;666;-72
2022/12/23 03:36:08;;;;;;;;;;;;;;;13.87;72.86;100142.56;1249575;23;708;-72
2022/12/23 03:36:58;;;;;;;;;;;;;;;13.85;72.91;100140.00;1249375;23;622;-72
2022/12/23 03:37:49;;;;;;;;;;;;;;;13.85;72.87;100139.16;1249463;23;630;-72
2022/12/23 03:38:39;;;;;;;;;;;;;;;13.86;73.48;100140.88;1244032;23;777;-72
2022/12/23 03:39:29;;;;;;;;;;;;;;;13.86;72.52;100135.50;1244009;23;686;-72
2022/12/23 03:40:20;;;;;;;;;;;;;;;13.84;72.81;100138.31;1249340;23;713;-72
2022/12/23 03:41:10;;;;;;;;;;;;;;;13.83;72.81;100136.63;1249369;23;752;-71
2022/12/23 03:42:01;;;;;;;;;;;;;;;13.84;73.04;100145.50;1249433;23;642;-72
2022/12/23 03:42:53;;;;;;;;;;;;;;;13.85;73.37;100149.88;1249358;23;626;-72
2022/12/23 03:43:43;;;;;;;;;;;;;;;13.84;73.15;100148.19;1248640;23;1905;-73
2022/12/23 03:44:33;;;;;;;;;;;;;;;13.82;73.29;100145.63;1249405;23;625;-72
2022/12/23 03:45:24;;;;;;;;;;;;;;;13.82;73.09;100152.81;1249396;23;649;-72
2022/12/23 03:46:14;;;;;;;;;;;;;;;13.84;72.76;100150.84;1249380;23;657;-72
2022/12/23 03:47:05;;;;;;;;;;;;;;;13.84;72.98;100149.03;1249427;23;650;-72
2022/12/23 03:47:55;;;;;;;;;;;;;;;13.86;73.27;100151.56;1249410;23;625;-72
2022/12/23 03:48:46;;;;;;;;;;;;;;;13.85;73.37;100152.56;1249412;23;614;-73
2022/12/23 03:49:36;;;;;;;;;;;;;;;13.86;73.34;100144.38;1243891;23;634;-72
2022/12/23 03:50:26;;;;;;;;;;;;;;;13.89;72.86;100151.31;1244129;23;661;-73
2022/12/23 03:51:17;;;;;;;;;;;;;;;13.86;72.68;100147.06;1249916;23;633;-73
2022/12/23 03:52:07;;;;;;;;;;;;;;;13.87;72.88;100150.59;1249415;23;629;-72
2022/12/23 03:52:58;;;;;;;;;;;;;;;13.86;72.81;100147.06;1249344;23;665;-72
2022/12/23 03:53:48;;;;;;;;;;;;;;;13.85;73.00;100145.38;1249382;23;622;-72
2022/12/23 03:54:39;;;;;;;;;;;;;;;13.87;73.04;100148.75;1249467;23;693;-72
2022/12/23 03:55:29;;;;;;;;;;;;;;;13.86;73.15;100155.09;1249407;23;618;-73
2022/12/23 03:56:20;;;;;;;;;;;;;;;13.87;72.87;100145.22;1249274;23;653;-72
2022/12/23 03:57:10;;;;;;;;;;;;;;;13.87;72.70;100143.41;1249340;23;629;-73
2022/12/23 03:58:01;;;;;;;;;;;;;;;13.87;73.33;100146.09;1243817;23;671;-73
2022/12/23 03:58:51;;;;;;;;;;;;;;;13.86;73.36;100146.22;1243941;23;614;-72
2022/12/23 03:59:41;;;;;;;;;;;;;;;13.86;72.72;100152.41;1250143;23;598;-72
2022/12/23 04:00:32;;;;;;;;;;;;;;;13.86;73.33;100157.78;1249345;23;680;-72
2022/12/23 04:01:22;;;;;;;;;;;;;;;13.87;72.86;100147.91;1249333;23;641;-72
2022/12/23 04:02:13;;;;;;;;;;;;;;;13.88;73.01;100154.97;1249267;23;677;-72
2022/12/23 04:03:03;;;;;;;;;;;;;;;13.88;73.13;100160.31;1249391;23;700;-72
2022/12/23 04:03:54;;;;;;;;;;;;;;;13.88;73.34;100165.69;1249221;23;1893;-72
2022/12/23 04:04:44;;;;;;;;;;;;;;;13.88;72.99;100171.03;1249421;23;626;-71
2022/12/23 04:05:34;;;;;;;;;;;;;;;13.86;73.04;100173.84;1249370;23;612;-73
2022/12/23 04:06:25;;;;;;;;;;;;;;;13.87;73.36;100177.38;1249481;23;634;-73
2022/12/23 04:07:15;;;;;;;;;;;;;;;13.87;73.22;100180.91;1249393;23;658;-72
2022/12/23 04:08:06;;;;;;;;;;;;;;;13.86;73.41;100183.72;1248664;23;614;-72
2022/12/23 04:08:56;;;;;;;;;;;;;;;13.87;73.45;100180.06;1249477;23;674;-72
2022/12/23 04:09:47;;;;;;;;;;;;;;;13.87;73.33;100185.41;1249308;23;625;-72
2022/12/23 04:10:37;;;;;;;;;;;;;;;13.88;73.21;100192.47;1249404;23;641;-73
2022/12/23 04:11:28;;;;;;;;;;;;;;;13.87;72.94;100185.41;1249379;23;650;-72
2022/12/23 04:12:18;;;;;;;;;;;;;;;13.87;72.91;100191.63;1249389;23;646;-73
2022/12/23 04:13:08;;;;;;;;;;;;;;;13.86;72.72;100183.72;1248884;23;566;-73
2022/12/23 04:13:59;;;;;;;;;;;;;;;13.86;73.01;100189.91;1249295;23;763;-73
2022/12/23 04:14:49;;;;;;;;;;;;;;;13.87;73.37;100190.78;1249357;23;661;-72
2022/12/23 04:15:40;;;;;;;;;;;;;;;13.87;72.81;100185.41;1249296;23;673;-72
2022/12/23 04:16:30;;;;;;;;;;;;;;;13.86;73.42;100195.28;1249396;23;677;-72
2022/12/23 04:17:21;;;;;;;;;;;;;;;13.86;73.01;100197.09;1249293;23;642;-72
2022/12/23 04:18:11;;;;;;;;;;;;;;;13.85;72.67;100195.41;1249233;23;714;-72
2022/12/23 04:19:02;;;;;;;;;;;;;;;13.84;73.01;100197.25;1249329;23;622;-72
2022/12/23 04:19:52;;;;;;;;;;;;;;;13.84;73.34;100205.28;1249336;23;696;-73
2022/12/23 04:20:42;;;;;;;;;;;;;;;13.86;73.35;100202.47;1249339;23;638;-72
2022/12/23 04:21:33;;;;;;;;;;;;;;;13.85;73.32;100198.09;1249462;23;633;-73
2022/12/23 04:22:23;;;;;;;;;;;;;;;13.84;73.07;100201.75;1249426;23;645;-72
2022/12/23 04:23:14;;;;;;;;;;;;;;;13.85;73.04;100203.44;1249267;23;640;-72
2022/12/23 04:24:04;;;;;;;;;;;;;;;13.84;73.60;100202.59;1249285;23;1923;-72
2022/12/23 04:24:54;;;;;;;;;;;;;;;13.84;73.40;100201.75;1243888;23;603;-72
2022/12/23 04:25:45;;;;;;;;;;;;;;;13.84;73.31;100207.09;1244791;23;642;-72
2022/12/23 04:26:35;;;;;;;;;;;;;;;13.84;73.52;100196.38;1249027;23;654;-72
2022/12/23 04:27:26;;;;;;;;;;;;;;;13.83;73.06;100198.22;1248811;23;646;-72
2022/12/23 04:28:17;;;;;;;;;;;;;;;13.83;73.01;100205.41;1249323;23;769;-72
2022/12/23 04:29:07;;;;;;;;;;;;;;;13.83;73.03;100206.25;1249249;23;626;-72
2022/12/23 04:29:57;;;;;;;;;;;;;;;13.82;73.54;100201.03;1249256;23;660;-72
2022/12/23 04:30:48;;;;;;;;;;;;;;;13.81;73.22;100197.50;1249305;23;665;-72
2022/12/23 04:31:38;;;;;;;;;;;;;;;13.81;73.39;100191.31;1249220;23;669;-71
2022/12/23 04:32:29;;;;;;;;;;;;;;;13.82;73.00;100195.69;1249270;23;701;-72
2022/12/23 04:33:19;;;;;;;;;;;;;;;13.82;72.90;100195.69;1249194;23;678;-72
2022/12/23 04:34:10;;;;;;;;;;;;;;;13.83;72.69;100200.06;1249415;23;656;-72
2022/12/23 04:35:00;;;;;;;;;;;;;;;13.83;73.29;100200.06;1249327;23;723;-72
2022/12/23 04:35:50;;;;;;;;;;;;;;;13.84;73.34;100197.25;1249377;23;642;-72
2022/12/23 04:36:41;;;;;;;;;;;;;;;13.82;73.51;100193.84;1249286;23;646;-72
2022/12/23 04:37:31;;;;;;;;;;;;;;;13.82;73.32;100204.56;1249364;23;661;-72
2022/12/23 04:38:22;;;;;;;;;;;;;;;13.83;73.04;100192.00;1249391;23;677;-72
2022/12/23 04:39:12;;;;;;;;;;;;;;;13.84;73.17;100196.38;1249306;23;632;-71
2022/12/23 04:40:03;;;;;;;;;;;;;;;13.83;73.61;100200.06;1249218;23;634;-71
2022/12/23 04:40:53;;;;;;;;;;;;;;;13.83;73.48;100198.22;1249275;23;733;-71
2022/12/23 04:41:43;;;;;;;;;;;;;;;13.83;72.97;100200.06;1248756;23;619;-72
2022/12/23 04:42:34;;;;;;;;;;;;;;;13.83;72.95;100200.91;1249288;23;646;-72
2022/12/23 04:43:24;;;;;;;;;;;;;;;13.84;73.38;100204.44;1249090;23;1061;-72
2022/12/23 04:44:15;;;;;;;;;;;;;;;13.85;72.95;100195.41;1249228;23;1943;-71
2022/12/23 04:45:05;;;;;;;;;;;;;;;13.84;73.34;100196.38;1249266;23;634;-72
2022/12/23 04:45:55;;;;;;;;;;;;;;;13.82;73.28;100196.53;1249380;23;619;-72
2022/12/23 04:46:46;;;;;;;;;;;;;;;13.83;73.38;100192.00;1249391;23;644;-72
2022/12/23 04:47:36;;;;;;;;;;;;;;;13.85;73.24;100192.72;1249275;23;590;-72
2022/12/23 04:48:27;;;;;;;;;;;;;;;13.86;72.85;100184.56;1249278;23;654;-72
2022/12/23 04:49:17;;;;;;;;;;;;;;;13.84;73.41;100191.88;1249324;23;629;-72
2022/12/23 04:50:08;;;;;;;;;;;;;;;13.84;73.06;100191.88;1249378;23;732;-72
2022/12/23 04:50:58;;;;;;;;;;;;;;;13.84;73.21;100194.56;1249358;23;669;-72